• Join FlightAware (Why Join?)
  • Login
  • US Flag 
03:28PM EDT


 

Airport Tracker/Info


-or-


 

Live Flight TrackerFlight Track Log ✈ CNS22 ✈ 14-May-2013 ✈ KRDU - KTEB

Flight Track Log - Related Links

Times and Time Zones

All times are in EDT time to prevent confusion due to time zone crossing. See the CNS22 flight status page for this flight to view local times or setup timezone preferences in your user account.

Time Position Orientation Groundspeed Altitude Reporting Facility
EDT Latitude Longitude Course Direction KTS MPH feet Rate Location/Type
04:56PM 35.8625 -78.8033 259° West 107 123 1,100  Level Washington Center
04:57PM 35.8575 -78.8339 259° West 130 150 1,700 900 Climbing Washington Center
04:58PM 35.8667 -78.8856 282° West 177 204 2,700 1,200 Climbing Washington Center
04:59PM 35.9114 -78.9258 324° Northwest 175 201 4,300 1,140 Climbing Washington Center
05:00PM 35.9503 -78.9533 330° Northwest 183 211 5,000 840 Climbing Washington Center
05:01PM 36.0044 -78.9581 356° North 214 246 6,000 1,260 Climbing Washington Center
05:01PM 36.0408 -78.9236 37° Northeast 199 229 7,500 1,620 Climbing Washington Center
05:02PM 36.0858 -78.8869 33° Northeast 193 222 9,200 1,560 Climbing Washington Center
05:03PM 36.1328 -78.8453 36° Northeast 193 222 10,700 840 Climbing Washington Center
05:05PM 36.1819 -78.8011 36° Northeast 203 234 11,000 480 Climbing Washington Center
05:05PM 36.2333 -78.7542 North 215 247 11,700 780 Climbing Washington Center
05:06PM 36.2822 -78.7122 35° Northeast 215 247 12,600 900 Climbing Washington Center
05:07PM 36.3294 -78.6678 37° Northeast 215 247 13,600 900 Climbing Washington Center
05:08PM 36.3783 -78.6283 33° Northeast 215 247 14,500 840 Climbing Washington Center
05:10PM 36.4211 -78.5889 37° Northeast 210 242 15,400 900 Climbing Washington Center
05:10PM 36.4619 -78.5414 43° Northeast 204 235 16,400 780 Climbing Washington Center
05:11PM 36.5069 -78.4964 39° Northeast 199 229 17,000 240 Climbing Washington Center
05:13PM 36.5542 -78.4414 43° Northeast 211 243 17,000  Level Washington Center
05:14PM 36.6033 -78.3864 42° Northeast 222 255 17,000  Level Washington Center
05:14PM 36.6569 -78.3286 43° Northeast 233 268 17,000  Level Washington Center
05:15PM 36.6516 -78.3306 43° Northeast  Level FlightAware Approximate
05:15PM 36.7061 -78.2681 45° Northeast 233 268 17,000  Level Washington Center
05:16PM 36.7575 -78.2131 41° Northeast 238 274 17,000  Level Washington Center
05:17PM 36.8089 -78.1550 42° Northeast 238 274 17,000  Level Washington Center
05:19PM 36.8581 -78.0944 45° Northeast 238 274 17,000  Level Washington Center
05:19PM 36.9114 -78.0364 41° Northeast 238 274 17,000  Level Washington Center
05:20PM 36.9628 -77.9781 42° Northeast 238 274 17,000  Level Washington Center
05:21PM 37.0139 -77.9225 41° Northeast 238 274 17,000  Level Washington Center
05:22PM 37.0631 -77.8642 43° Northeast 238 274 17,000  Level Washington Center
05:24PM 37.1206 -77.8006 41° Northeast 238 274 17,000  Level Washington Center
05:25PM 37.1694 -77.7422 44° Northeast 238 274 17,000  Level Washington Center
05:25PM 37.2206 -77.6861 41° Northeast 238 274 17,000  Level Washington Center
05:27PM 37.2694 -77.6300 42° Northeast 238 274 17,000  Level Washington Center
05:28PM 37.3183 -77.5714 44° Northeast 238 274 17,000  Level Washington Center
05:29PM 37.3694 -77.5153 41° Northeast 238 274 17,000  Level Washington Center
05:29PM 37.4206 -77.4536 44° Northeast 238 274 17,000  Level Washington Center
05:31PM 37.4714 -77.3972 41° Northeast 238 274 17,000  Level Washington Center
05:32PM 37.5203 -77.3408 42° Northeast 238 274 17,000  Level Washington Center
05:33PM 37.5711 -77.2819 43° Northeast 238 274 17,000  Level Washington Center
05:33PM 37.6219 -77.2228 43° Northeast 238 274 17,000  Level Washington Center
05:34PM 37.6708 -77.1633 44° Northeast 238 274 17,000  Level Washington Center
05:36PM 37.7236 -77.1067 40° Northeast 238 274 17,000  Level Washington Center
05:36PM 37.7744 -77.0550 39° Northeast 238 274 17,000  Level Washington Center
05:37PM 37.8292 -77.0089 34° Northeast 233 268 17,000  Level Washington Center
05:38PM 37.8839 -76.9600 35° Northeast 227 261 17,000  Level Washington Center
05:39PM 37.9367 -76.9108 36° Northeast 227 261 17,000  Level Washington Center
05:41PM 37.9914 -76.8617 35° Northeast 232 267 17,000  Level Washington Center
05:42PM 38.0439 -76.8153 35° Northeast 232 267 17,000  Level Washington Center
05:43PM 38.0967 -76.7658 36° Northeast 232 267 17,000  Level Washington Center
05:44PM 38.1533 -76.7192 33° Northeast 232 267 17,000  Level Washington Center
05:45PM 38.2058 -76.6697 36° Northeast 232 267 17,000  Level Washington Center
05:45PM 38.2583 -76.6203 36° Northeast 232 267 17,000  Level Washington Center
05:46PM 38.3131 -76.5733 34° Northeast 232 267 17,000 -180 Level Washington Center
05:48PM 38.3678 -76.5264 34° Northeast 232 267 16,700 -600 Descending Washington Center
05:49PM 38.4222 -76.4769 35° Northeast 237 273 15,900 -900 Descending Washington Center
05:49PM 38.4811 -76.4219 36° Northeast 242 278 15,000 -900 Descending Washington Center
05:50PM 38.5356 -76.3747 34° Northeast 242 278 14,200 -840 Descending Washington Center
05:52PM 38.5881 -76.3247 37° Northeast 242 278 13,400 -600 Descending Washington Center
05:52PM 38.6444 -76.2933 23° Northeast 235 270 13,100 -180 Descending Washington Center
05:53PM 38.7031 -76.2753 14° North 215 247 13,100 -180 Level Washington Center
05:54PM 38.7636 -76.2572 13° North 210 242 12,800 -420 Descending Washington Center
05:56PM 38.8261 -76.2392 13° North 215 247 12,300 -360 Descending Washington Center
05:57PM 38.8931 -76.2158 15° North 229 264 12,100 -120 Descending Washington Center
05:58PM 38.9514 -76.1975 14° North 229 264 12,100  Level Washington Center
05:58PM 39.0142 -76.1794 13° North 223 257 12,100 -60 Level Washington Center
05:59PM 39.0747 -76.1478 22° Northeast 223 257 12,000 -60 Descending Washington Center
06:01PM 39.1311 -76.1081 29° Northeast 223 257 12,000  Level Washington Center
06:03PM 39.2667 -76.0167 28° Northeast 234 269 12,000  Level Philadelphia TRACON
06:04PM 39.3333 -75.9667 30° Northeast 234 269 12,000  Level Philadelphia TRACON
06:05PM 39.4000 -75.9333 21° North 236 272 12,000  Level Philadelphia TRACON
06:06PM 39.4500 -75.9000 27° Northeast 236 272 12,000  Level Philadelphia TRACON
06:07PM 39.5000 -75.8500 38° Northeast 234 269 12,000  Level Philadelphia TRACON
06:08PM 39.5667 -75.8167 21° North 236 272 12,000  Level Philadelphia TRACON
06:09PM 39.6000 -75.7667 49° Northeast 243 280 12,000  Level Philadelphia TRACON
06:10PM 39.6667 -75.7167 30° Northeast 244 281 12,000  Level Philadelphia TRACON
06:11PM 39.7333 -75.6667 30° Northeast 245 282 12,000  Level Philadelphia TRACON
06:12PM 39.7833 -75.6167 38° Northeast 242 278 12,000  Level Philadelphia TRACON
06:13PM 39.8333 -75.5667 38° Northeast 244 281 12,000  Level Philadelphia TRACON
06:14PM 39.8833 -75.5167 37° Northeast 245 282 12,000  Level Philadelphia TRACON
06:15PM 39.9333 -75.4667 37° Northeast 247 284 12,000  Level Philadelphia TRACON
06:16PM 40.0000 -75.4167 30° Northeast 242 278 12,000  Level Philadelphia TRACON
06:17PM 40.0500 -75.3667 37° Northeast 242 278 12,000  Level Philadelphia TRACON
06:18PM 40.1167 -75.3000 37° Northeast 243 280 12,000  Level Philadelphia TRACON
06:19PM 40.1667 -75.2500 37° Northeast 244 281 12,000 -240 Level Philadelphia TRACON
06:20PM 40.2333 -75.2000 30° Northeast 248 285 11,600 -720 Descending Philadelphia TRACON
06:22PM 40.3333 -75.0833 42° Northeast 226 260 9,800 -1,200 Descending New York TRACON
06:23PM 40.3833 -75.0333 37° Northeast 244 281 7,900 -1,680 Descending New York TRACON
06:24PM 40.4333 -74.9667 45° Northeast 239 275 6,500 -1,260 Descending New York TRACON
06:25PM 40.4833 -74.9000 45° Northeast 251 289 5,500 -1,020 Descending New York TRACON
06:26PM 40.5167 -74.8333 57° Northeast 249 287 4,500 -780 Descending New York TRACON
06:27PM 40.5833 -74.8000 21° North 240 276 4,000 -300 Descending New York TRACON
06:28PM 40.6333 -74.7500 37° Northeast 232 267 4,000  Level New York TRACON
06:29PM 40.7000 -74.7167 21° North 227 261 4,000  Level New York TRACON
06:30PM 40.7500 -74.6667 37° Northeast 227 261 4,000  Level New York TRACON
06:31PM 40.8000 -74.6333 27° Northeast 229 264 4,000 -300 Level New York TRACON
06:32PM 40.8500 -74.5833 37° Northeast 238 274 3,400 -540 Descending New York TRACON
06:33PM 40.9000 -74.5167 45° Northeast 237 273 3,000 -240 Descending New York TRACON
06:34PM 40.9333 -74.4500 56° Northeast 231 266 3,000  Level New York TRACON
06:35PM 40.9500 -74.3667 75° East 235 270 3,000  Level New York TRACON
06:36PM 40.9667 -74.2833 75° East 234 269 3,000 -360 Level New York TRACON
06:37PM 40.9833 -74.2000 75° East 231 266 2,300 -540 Descending New York TRACON
06:38PM 40.9833 -74.1167 90° East 202 232 2,000 -180 Descending New York TRACON
06:39PM 40.9667 -74.0667 114° Southeast 193 222 2,000 -300 Level New York TRACON
06:40PM 40.9167 -74.0500 166° South 194 223 1,400 -540 Descending New York TRACON
06:41PM 40.8833 -74.0167 143° Southeast 136 157 1,000 -600 Descending New York TRACON
06:42PM 40.8667 -74.0500 237° Southwest 110 127 300 -720 Descending New York TRACON